createdAt,value
2018-09-10T00:02:26.797Z,1.30
2018-09-10T00:05:00.045Z,1.70
2018-09-10T00:07:28.532Z,1.67
2018-09-10T00:09:57.004Z,1.80
2018-09-10T00:12:26.229Z,1.80
2018-09-10T00:14:55.152Z,1.33
2018-09-10T00:17:23.624Z,1.47
2018-09-10T00:19:52.854Z,1.77
2018-09-10T00:22:21.908Z,1.60
2018-09-10T00:24:50.401Z,1.43
2018-09-10T00:27:19.624Z,1.80
2018-09-10T00:29:48.578Z,1.80
2018-09-10T00:32:18.434Z,1.70
2018-09-10T00:34:47.788Z,1.57
2018-09-10T00:37:28.969Z,1.80
2018-09-10T00:39:57.728Z,1.90
2018-09-10T00:42:26.252Z,1.80
2018-09-10T00:44:55.218Z,2.87
2018-09-10T00:47:24.593Z,2.00
2018-09-10T00:49:53.533Z,2.00
2018-09-10T00:52:35.356Z,1.77
2018-09-10T00:55:04.617Z,1.50
2018-09-10T00:57:33.686Z,1.70
2018-09-10T01:00:02.668Z,1.63
2018-09-10T01:02:32.658Z,1.90
2018-09-10T01:05:01.149Z,2.07
2018-09-10T01:07:34.573Z,1.90
2018-09-10T01:10:03.391Z,1.77
2018-09-10T01:12:44.412Z,1.63
2018-09-10T01:15:13.639Z,1.50
2018-09-10T01:17:42.597Z,1.53
2018-09-10T01:20:11.601Z,3.77
2018-09-10T01:22:42.597Z,2.10
2018-09-10T01:25:11.561Z,1.80
2018-09-10T01:27:45.345Z,1.77
2018-09-10T01:30:14.586Z,1.60
2018-09-10T01:32:55.507Z,3.20
2018-09-10T01:35:24.709Z,2.63
2018-09-10T01:37:53.753Z,3.47
2018-09-10T01:40:22.809Z,2.77
2018-09-10T01:42:54.598Z,2.37
2018-09-10T01:45:23.133Z,2.30
2018-09-10T01:47:57.162Z,2.40
2018-09-10T01:50:26.377Z,1.97
2018-09-10T01:53:00.999Z,2.13
2018-09-10T01:55:29.526Z,1.83
2018-09-10T01:58:11.620Z,1.93
2018-09-10T02:00:41.086Z,1.97
2018-09-10T02:03:09.704Z,2.20
2018-09-10T02:05:38.889Z,2.30
2018-09-10T02:08:11.114Z,2.03
2018-09-10T02:10:40.230Z,2.00
2018-09-10T02:13:11.920Z,2.27
2018-09-10T02:15:46.094Z,2.60
2018-09-10T02:18:15.078Z,2.97
2018-09-10T02:20:44.017Z,3.07
2018-09-10T02:23:25.449Z,2.90
2018-09-10T02:25:54.679Z,3.33
2018-09-10T02:35:22.458Z,2.27
2018-09-10T02:37:51.357Z,2.40
2018-09-10T02:40:33.441Z,2.37
2018-09-10T02:43:02.229Z,1.93
2018-09-10T02:45:33.303Z,2.53
2018-09-10T02:48:03.151Z,1.77
2018-09-10T02:50:32.894Z,1.70
2018-09-10T02:53:02.061Z,1.87
2018-09-10T02:55:33.026Z,1.67
2018-09-10T02:58:02.850Z,2.00
2018-09-10T03:00:34.169Z,1.60
2018-09-10T03:03:02.931Z,2.53
2018-09-10T03:05:35.950Z,1.67
2018-09-10T03:08:05.150Z,2.10
2018-09-10T03:10:38.783Z,1.70
2018-09-10T03:13:07.669Z,1.93
2018-09-10T03:15:41.553Z,1.70
2018-09-10T03:18:10.418Z,1.77
2018-09-10T03:23:04.739Z,2.20
2018-09-10T03:25:34.154Z,1.73
2018-09-10T03:28:03.376Z,1.70
2018-09-10T03:30:32.294Z,1.80
2018-09-10T03:33:00.788Z,1.80
2018-09-10T03:35:29.543Z,2.00
2018-09-10T03:37:58.168Z,2.00
2018-09-10T03:40:27.470Z,2.10
2018-09-10T03:42:57.911Z,2.10
2018-09-10T03:45:26.824Z,2.30
2018-09-10T03:48:00.149Z,1.90
2018-09-10T03:50:29.315Z,1.87
2018-09-10T03:53:03.077Z,2.00
2018-09-10T03:55:31.627Z,2.17
2018-09-10T03:58:04.652Z,2.20
2018-09-10T04:00:33.821Z,2.10
2018-09-10T04:03:02.656Z,2.07
2018-09-10T04:05:31.631Z,2.00
2018-09-10T04:08:00.572Z,2.27
2018-09-10T04:10:29.278Z,2.47
2018-09-10T04:12:57.776Z,2.20
2018-09-10T04:15:26.668Z,2.10
2018-09-10T04:17:55.817Z,2.10
2018-09-10T04:20:24.712Z,2.00
2018-09-10T04:22:53.605Z,2.17
2018-09-10T04:25:22.851Z,2.47
2018-09-10T04:27:51.759Z,2.13
2018-09-10T04:30:32.567Z,2.20
2018-09-10T04:33:02.027Z,2.13
2018-09-10T04:35:30.971Z,2.70
2018-09-10T04:37:59.870Z,2.83
2018-09-10T04:40:29.203Z,2.97
2018-09-10T04:42:58.117Z,2.70
2018-09-10T04:45:38.916Z,2.63
2018-09-10T04:48:07.835Z,2.80
2018-09-10T04:50:36.756Z,3.50
2018-09-10T04:53:05.215Z,3.30
2018-09-10T04:55:36.043Z,4.30
2018-09-10T04:58:05.036Z,3.90
2018-09-10T05:00:46.654Z,5.10
2018-09-10T05:03:15.515Z,4.40
2018-09-10T05:05:44.059Z,4.40
2018-09-10T05:08:12.694Z,4.83
2018-09-10T05:10:45.254Z,4.97
2018-09-10T05:13:14.171Z,4.67
2018-09-10T05:15:47.254Z,4.80
2018-09-10T05:18:16.515Z,4.50
2018-09-10T05:20:49.992Z,5.60
2018-09-10T05:23:18.628Z,4.37
2018-09-10T05:25:51.816Z,4.63
2018-09-10T05:28:20.824Z,4.53
2018-09-10T05:30:54.419Z,4.60
2018-09-10T05:33:23.362Z,5.07
2018-09-10T05:38:26.023Z,4.23
2018-09-10T05:43:32.837Z,4.47
2018-09-10T05:46:08.111Z,3.77
2018-09-10T05:48:37.348Z,4.33
2018-09-10T05:51:09.474Z,3.40
2018-09-10T05:53:37.955Z,4.47
2018-09-10T05:56:11.043Z,3.80
2018-09-10T05:59:11.289Z,3.47
2018-09-10T06:01:40.760Z,3.87
2018-09-10T06:04:15.144Z,3.53
2018-09-10T06:06:44.080Z,3.73
2018-09-10T06:09:17.288Z,3.23
2018-09-10T06:11:46.172Z,3.80
2018-09-10T06:14:19.621Z,3.27
2018-09-10T06:16:49.054Z,3.73
2018-09-10T06:19:23.004Z,3.80
2018-09-10T06:21:52.420Z,3.73
2018-09-10T06:24:35.416Z,3.73
2018-09-10T06:27:03.875Z,3.80
2018-09-10T06:29:32.347Z,3.23
2018-09-10T06:32:01.540Z,3.37
2018-09-10T06:34:30.002Z,3.53
2018-09-10T06:36:58.942Z,3.13
2018-09-10T06:39:40.079Z,3.70
2018-09-10T06:42:08.967Z,3.90
2018-09-10T06:44:38.146Z,3.80
2018-09-10T06:47:06.646Z,3.80
2018-09-10T06:49:39.088Z,4.30
2018-09-10T06:52:08.033Z,4.10
2018-09-10T06:54:40.440Z,3.70
2018-09-10T06:57:09.647Z,4.00
2018-09-10T06:59:45.428Z,3.80
2018-09-10T07:02:13.935Z,3.97
2018-09-10T07:04:45.275Z,4.20
2018-09-10T07:07:14.172Z,4.23
2018-09-10T07:09:48.736Z,4.13
2018-09-10T07:12:17.942Z,4.00
2018-09-10T07:14:51.220Z,3.80
2018-09-10T07:17:19.666Z,4.30
2018-09-10T07:19:55.312Z,4.60
2018-09-10T07:22:24.708Z,4.10
2018-09-10T07:24:57.659Z,4.43
2018-09-10T07:27:26.570Z,4.37
2018-09-10T07:30:02.872Z,4.30
2018-09-10T07:32:32.239Z,4.83
2018-09-10T07:35:03.215Z,4.47
2018-09-10T07:37:31.816Z,4.50
2018-09-10T07:40:06.134Z,4.50
2018-09-10T07:42:35.416Z,4.63
2018-09-10T07:45:13.164Z,4.23
2018-09-10T07:47:42.084Z,4.50
2018-09-10T07:50:13.504Z,4.60
2018-09-10T07:52:42.052Z,4.17
2018-09-10T07:55:22.895Z,4.80
2018-09-10T07:57:52.180Z,4.80
2018-09-10T08:00:20.703Z,4.50
2018-09-10T08:02:49.549Z,5.13
2018-09-10T08:05:19.920Z,5.33
2018-09-10T08:07:49.155Z,4.47
2018-09-10T08:10:22.255Z,4.87
2018-09-10T08:12:51.588Z,5.10
2018-09-10T08:15:24.300Z,4.83
2018-09-10T08:17:53.237Z,5.50
2018-09-10T08:20:35.255Z,5.03
2018-09-10T08:23:04.185Z,5.37
2018-09-10T08:25:33.564Z,5.73
2018-09-10T08:28:02.459Z,5.20
2018-09-10T08:30:32.110Z,6.00
2018-09-10T08:33:01.399Z,5.50
2018-09-10T08:35:34.380Z,4.67
2018-09-10T08:38:02.844Z,5.33
2018-09-10T08:40:44.849Z,4.33
2018-09-10T08:43:13.362Z,5.57
2018-09-10T08:45:42.335Z,5.22
2018-09-10T08:48:11.313Z,4.30
2018-09-10T08:50:43.779Z,4.83
2018-09-10T08:55:49.734Z,4.90
2018-09-10T08:58:18.601Z,5.62
2018-09-10T09:00:47.521Z,5.30
2018-09-10T09:03:18.175Z,5.70
2018-09-10T09:05:50.565Z,4.97
2018-09-10T09:08:19.103Z,4.97
2018-09-10T09:10:52.359Z,5.27
2018-09-10T09:13:21.212Z,5.05
2018-09-10T09:15:53.959Z,5.17
2018-09-10T09:18:22.899Z,5.20
2018-09-10T09:20:59.132Z,5.73
2018-09-10T09:23:28.417Z,6.37
2018-09-10T09:26:01.724Z,6.50
2018-09-10T09:28:30.684Z,5.80
2018-09-10T09:31:11.619Z,6.10
2018-09-10T09:33:40.171Z,6.73
2018-09-10T09:36:14.624Z,5.33
2018-09-10T09:38:48.435Z,6.07
2018-09-10T09:41:22.768Z,5.90
2018-09-10T09:43:56.744Z,6.50
2018-09-10T09:46:26.141Z,5.60
2018-09-10T09:48:54.704Z,5.37
2018-09-10T09:51:23.726Z,6.70
2018-09-10T09:53:52.698Z,5.93
2018-09-10T09:56:25.494Z,6.23
2018-09-10T09:58:57.327Z,5.80
2018-09-10T10:01:31.247Z,5.80
2018-09-10T10:04:05.104Z,5.43
2018-09-10T10:06:34.022Z,7.03
2018-09-10T10:09:02.539Z,6.43
2018-09-10T10:11:31.378Z,6.30
2018-09-10T10:14:00.322Z,6.20
2018-09-10T10:16:29.340Z,6.10
2018-09-10T10:18:58.734Z,6.53
2018-09-10T10:21:30.948Z,5.57
2018-09-10T10:23:59.991Z,5.67
2018-09-10T10:26:41.375Z,5.23
2018-09-10T10:29:10.315Z,6.43
2018-09-10T10:31:39.261Z,8.23
2018-09-10T10:34:08.120Z,8.30
2018-09-10T10:36:38.895Z,7.57
2018-09-10T10:39:08.579Z,7.97
2018-09-10T10:41:42.722Z,7.23
2018-09-10T10:44:11.703Z,7.37
2018-09-10T10:46:53.951Z,7.13
2018-09-10T10:49:23.412Z,7.70
2018-09-10T10:51:51.981Z,6.77
2018-09-10T10:54:21.364Z,6.77
2018-09-10T10:56:50.156Z,6.80
2018-09-10T10:59:18.663Z,6.83
2018-09-10T11:01:52.133Z,6.97
2018-09-10T11:04:21.030Z,7.30
2018-09-10T11:06:54.650Z,6.27
2018-09-10T11:09:23.744Z,5.83
2018-09-10T11:11:56.139Z,5.93
2018-09-10T11:14:25.367Z,5.47
2018-09-10T11:16:53.884Z,4.73
2018-09-10T11:19:22.862Z,4.87
2018-09-10T11:21:51.856Z,5.03
2018-09-10T11:26:46.290Z,5.15
2018-09-10T11:29:15.616Z,5.40
2018-09-10T11:31:44.602Z,5.47
2018-09-10T11:34:13.660Z,4.47
2018-09-10T11:36:42.440Z,5.07
2018-09-10T11:39:23.993Z,4.97
2018-09-10T11:41:53.336Z,5.70
2018-09-10T11:44:26.304Z,5.30
2018-09-10T11:46:54.925Z,5.27
2018-09-10T11:49:24.217Z,4.77
2018-09-10T11:51:53.414Z,4.70
2018-09-10T11:54:22.920Z,4.97
2018-09-10T11:56:51.735Z,4.87
2018-09-10T11:59:33.716Z,4.97
2018-09-10T12:02:03.371Z,5.00
2018-09-10T12:04:33.306Z,5.37
2018-09-10T12:07:02.910Z,4.70
2018-09-10T12:09:31.548Z,5.17
2018-09-10T12:12:01.279Z,5.20
2018-09-10T12:14:33.770Z,5.33
2018-09-10T12:17:04.909Z,5.90
2018-09-10T12:19:35.680Z,4.80
2018-09-10T12:22:04.688Z,5.10
2018-09-10T12:24:37.462Z,5.07
2018-09-10T12:27:06.051Z,5.43
2018-09-10T12:29:38.772Z,5.30
2018-09-10T12:32:08.220Z,5.43
2018-09-10T12:34:41.236Z,5.93
2018-09-10T12:37:10.313Z,5.77
2018-09-10T12:39:43.855Z,6.20
2018-09-10T12:42:12.335Z,6.33
2018-09-10T12:44:45.602Z,5.67
2018-09-10T12:47:15.109Z,5.23
2018-09-10T12:49:48.585Z,6.20
2018-09-10T12:52:17.505Z,5.70
2018-09-10T12:54:51.003Z,6.03
2018-09-10T12:57:20.101Z,5.67
2018-09-10T12:59:54.669Z,5.67
2018-09-10T13:02:23.595Z,5.60
2018-09-10T13:04:56.743Z,4.87
2018-09-10T13:07:25.332Z,5.80
2018-09-10T13:09:53.789Z,5.45
2018-09-10T13:12:22.941Z,5.87
2018-09-10T13:14:51.803Z,5.13
2018-09-10T13:17:20.829Z,3.93
2018-09-10T13:19:49.299Z,4.17
2018-09-10T13:22:18.735Z,4.33
2018-09-10T13:24:47.744Z,5.20
2018-09-10T13:27:16.884Z,3.20
2018-09-10T13:29:45.936Z,4.00
2018-09-10T13:32:14.607Z,3.12
2018-09-10T13:34:43.493Z,2.93
2018-09-10T13:37:16.599Z,2.93
2018-09-10T13:39:45.580Z,3.20
2018-09-10T13:42:18.788Z,3.40
2018-09-10T13:44:48.212Z,3.30
2018-09-10T13:47:21.205Z,2.90
2018-09-10T13:49:50.188Z,2.97
2018-09-10T13:52:23.374Z,2.90
2018-09-10T13:54:52.384Z,2.80
2018-09-10T13:57:26.753Z,3.20
2018-09-10T13:59:55.733Z,3.40
2018-09-10T14:02:29.460Z,3.57
2018-09-10T14:04:58.315Z,3.40
2018-09-10T14:07:32.878Z,3.83
2018-09-10T14:10:01.835Z,3.60
2018-09-10T14:12:36.436Z,3.23
2018-09-10T14:15:05.668Z,3.07
2018-09-10T14:17:39.698Z,3.03
2018-09-10T14:20:08.644Z,3.17
2018-09-10T14:22:41.328Z,2.93
2018-09-10T14:25:10.674Z,3.10
2018-09-10T14:27:52.399Z,2.90
2018-09-10T14:30:22.013Z,3.10
2018-09-10T14:32:51.014Z,3.07
2018-09-10T14:35:19.957Z,2.97
2018-09-10T14:37:48.938Z,2.93
2018-09-10T14:40:17.928Z,3.13
2018-09-10T14:42:51.483Z,3.40
2018-09-10T14:45:20.783Z,3.20
2018-09-10T14:48:02.087Z,3.50
2018-09-10T14:50:31.111Z,3.50
2018-09-10T14:52:59.611Z,3.50
2018-09-10T14:55:28.228Z,3.33
2018-09-10T14:58:00.113Z,3.00
2018-09-10T15:00:29.361Z,3.20
2018-09-10T15:03:04.992Z,3.30
2018-09-10T15:05:34.454Z,3.63
2018-09-10T15:08:05.922Z,3.13
2018-09-10T15:10:34.405Z,3.30
2018-09-10T15:13:08.920Z,2.77
2018-09-10T15:15:37.483Z,3.83
2018-09-10T15:18:10.449Z,3.40
2018-09-10T15:20:39.476Z,3.73
2018-09-10T15:23:12.582Z,3.33
2018-09-10T15:25:41.567Z,3.80
2018-09-10T15:28:17.631Z,3.67
2018-09-10T15:30:46.410Z,3.80
2018-09-10T15:33:28.148Z,3.40
2018-09-10T15:35:56.988Z,4.17
2018-09-10T15:38:25.521Z,3.17
2018-09-10T15:40:54.006Z,3.13
2018-09-10T15:43:25.314Z,3.23
2018-09-10T15:45:54.240Z,3.20
2018-09-10T15:48:35.628Z,3.20
2018-09-10T15:51:04.523Z,3.40
2018-09-10T15:53:33.462Z,3.50
2018-09-10T15:56:02.408Z,3.37
2018-09-10T15:58:32.184Z,3.33
2018-09-10T16:01:00.689Z,3.07
2018-09-10T16:03:42.411Z,3.43
2018-09-10T16:06:14.784Z,3.40
2018-09-10T16:08:43.759Z,3.10
2018-09-10T16:11:12.271Z,3.40
2018-09-10T16:13:41.735Z,2.97
2018-09-10T16:16:10.239Z,4.00
2018-09-10T16:18:42.916Z,3.97
2018-09-10T16:21:12.208Z,3.83
2018-09-10T16:23:44.704Z,3.27
2018-09-10T16:26:13.181Z,3.47
2018-09-10T16:28:54.926Z,3.83
2018-09-10T16:31:24.046Z,3.97
2018-09-10T16:33:53.270Z,4.03
2018-09-10T16:36:21.761Z,3.83
2018-09-10T16:38:51.451Z,3.67
2018-09-10T16:41:20.392Z,3.93
2018-09-10T16:43:57.937Z,3.87
2018-09-10T16:46:26.836Z,3.50
2018-09-10T16:48:59.749Z,4.10
2018-09-10T16:51:28.898Z,3.73
2018-09-10T16:54:00.824Z,3.83
2018-09-10T16:56:29.302Z,3.30
2018-09-10T16:59:10.224Z,3.83
2018-09-10T17:01:39.449Z,3.47
2018-09-10T17:04:08.474Z,3.67
2018-09-10T17:06:37.176Z,3.23
2018-09-10T17:09:10.796Z,3.60
2018-09-10T17:11:39.791Z,3.30
2018-09-10T17:14:21.484Z,3.43
2018-09-10T17:16:50.004Z,3.30
2018-09-10T17:19:19.917Z,3.53
2018-09-10T17:21:48.513Z,3.33
2018-09-10T17:24:17.460Z,3.67
2018-09-10T17:26:46.379Z,3.80
2018-09-10T17:29:21.228Z,3.90
2018-09-10T17:31:50.027Z,4.27
2018-09-10T17:34:31.219Z,4.00
2018-09-10T17:36:59.950Z,5.83
2018-09-10T17:39:28.987Z,4.07
2018-09-10T17:41:57.476Z,3.97
2018-09-10T17:44:27.757Z,3.70
2018-09-10T17:46:56.340Z,3.40
2018-09-10T17:49:29.391Z,4.03
2018-09-10T17:51:58.147Z,3.70
2018-09-10T17:59:07.559Z,4.07
2018-09-10T18:04:08.923Z,4.73
2018-09-10T18:06:41.661Z,3.77
2018-09-10T18:11:43.165Z,3.53
2018-09-10T18:14:12.381Z,3.70
2018-09-10T18:16:45.572Z,3.97
2018-09-10T18:19:14.777Z,3.90
2018-09-10T18:21:49.264Z,3.30
2018-09-10T18:24:17.738Z,4.50
2018-09-10T18:26:58.948Z,4.37
2018-09-10T18:29:27.950Z,4.20
2018-09-10T18:31:57.144Z,4.20
2018-09-10T18:34:25.719Z,3.73
2018-09-10T18:36:56.647Z,4.40
2018-09-10T18:39:25.647Z,4.40
2018-09-10T18:41:59.460Z,3.90
2018-09-10T18:44:28.255Z,4.33
2018-09-10T18:47:01.659Z,4.80
2018-09-10T18:49:30.696Z,5.23
2018-09-10T18:52:05.601Z,5.07
2018-09-10T18:54:34.074Z,4.57
2018-09-10T18:57:09.176Z,4.37
2018-09-10T18:59:38.726Z,4.37
2018-09-10T19:02:12.657Z,4.00
2018-09-10T19:04:41.915Z,5.00
2018-09-10T19:07:22.939Z,4.10
2018-09-10T19:09:52.623Z,4.43
2018-09-10T19:12:21.592Z,4.53
2018-09-10T19:14:50.347Z,4.43
2018-09-10T19:17:21.164Z,4.20
2018-09-10T19:19:49.670Z,4.40
2018-09-10T19:22:22.256Z,4.10
2018-09-10T19:24:50.716Z,4.00
2018-09-10T19:27:24.220Z,4.47
2018-09-10T19:29:53.002Z,4.10
2018-09-10T19:32:27.848Z,4.37
2018-09-10T19:37:21.148Z,4.97
2018-09-10T19:39:50.271Z,4.07
2018-09-10T19:42:19.284Z,4.20
2018-09-10T19:44:48.023Z,3.80
2018-09-10T19:47:16.526Z,3.97
2018-09-10T19:49:45.128Z,3.93
2018-09-10T19:52:13.948Z,4.07
2018-09-10T19:54:42.511Z,3.83
2018-09-10T19:57:11.069Z,4.07
2018-09-10T19:59:40.430Z,4.27
2018-09-10T20:02:08.915Z,4.07
2018-09-10T20:04:50.540Z,3.83
2018-09-10T20:07:19.448Z,4.20
2018-09-10T20:09:48.561Z,4.20
2018-09-10T20:12:17.456Z,4.20
2018-09-10T20:17:24.767Z,4.50
2018-09-10T20:19:53.675Z,4.83
2018-09-10T20:22:23.017Z,3.97
2018-09-10T20:24:55.512Z,4.20
2018-09-10T20:27:24.048Z,4.50
2018-09-10T20:29:56.689Z,4.87
2018-09-10T20:32:25.189Z,3.90
2018-09-10T20:35:00.339Z,4.13
2018-09-10T20:37:29.565Z,4.80
2018-09-10T20:40:02.864Z,4.80
2018-09-10T20:42:31.996Z,4.10
2018-09-10T20:45:13.010Z,4.27
2018-09-10T20:47:41.543Z,4.00
2018-09-10T20:50:11.800Z,3.77
2018-09-10T20:52:40.869Z,4.23
2018-09-10T20:55:13.672Z,4.33
2018-09-10T20:57:42.633Z,4.40
2018-09-10T21:00:14.859Z,4.23
2018-09-10T21:02:43.412Z,3.83
2018-09-10T21:05:16.730Z,4.10
2018-09-10T21:07:45.515Z,3.87
2018-09-10T21:10:20.751Z,3.60
2018-09-10T21:12:49.976Z,4.40
2018-09-10T21:15:20.935Z,4.30
2018-09-10T21:17:49.415Z,3.73
2018-09-10T21:20:23.170Z,3.77
2018-09-10T21:22:51.709Z,4.40
2018-09-10T21:25:25.160Z,3.70
2018-09-10T21:28:04.733Z,4.30
2018-09-10T21:30:34.155Z,4.17
2018-09-10T21:33:02.955Z,3.77
2018-09-10T21:35:32.429Z,3.47
2018-09-10T21:38:01.382Z,3.43
2018-09-10T21:40:34.296Z,3.70
2018-09-10T21:43:03.275Z,3.43
2018-09-10T21:45:55.914Z,3.37
2018-09-10T21:48:24.811Z,4.00
2018-09-10T21:50:53.707Z,4.40
2018-09-10T21:53:22.970Z,3.67
2018-09-10T21:55:51.501Z,3.43
2018-09-10T21:58:20.552Z,3.50
2018-09-10T22:00:55.034Z,3.73
2018-09-10T22:05:57.651Z,4.20
2018-09-10T22:08:26.158Z,3.27
2018-09-10T22:10:54.615Z,3.20
2018-09-10T22:13:23.842Z,3.80
2018-09-10T22:15:52.344Z,4.03
2018-09-10T22:18:20.904Z,3.50
2018-09-10T22:20:53.684Z,3.00
2018-09-10T22:23:23.019Z,3.67
2018-09-10T22:26:04.035Z,3.77
2018-09-10T22:28:32.864Z,3.07
2018-09-10T22:31:01.343Z,3.37
2018-09-10T22:33:29.815Z,3.10
2018-09-10T22:36:01.648Z,3.80
2018-09-10T22:38:30.215Z,3.13
2018-09-10T22:41:03.202Z,3.63
2018-09-10T22:43:32.060Z,3.90
2018-09-10T22:46:00.983Z,3.43
2018-09-10T22:48:30.485Z,3.00
2018-09-10T22:50:59.226Z,3.20
2018-09-10T22:53:27.680Z,3.57
2018-09-10T22:55:56.177Z,3.00
2018-09-10T22:58:26.128Z,3.10
2018-09-10T23:00:54.631Z,3.50
2018-09-10T23:03:23.508Z,3.53
2018-09-10T23:05:52.300Z,2.93
2018-09-10T23:08:21.368Z,3.10
2018-09-10T23:10:50.092Z,3.13
2018-09-10T23:13:20.869Z,3.27
2018-09-10T23:24:52.397Z,3.17
2018-09-10T23:27:29.296Z,3.03
2018-09-10T23:34:31.829Z,2.90
2018-09-10T23:39:34.878Z,2.90
2018-09-10T23:42:03.799Z,3.10
2018-09-10T23:44:36.399Z,2.57
2018-09-10T23:47:05.593Z,2.50
2018-09-10T23:49:39.328Z,2.93
2018-09-10T23:52:07.828Z,3.03
2018-09-10T23:54:36.723Z,2.73
2018-09-10T23:57:10.422Z,3.33
2018-09-10T23:59:43.316Z,2.50
